ARCT2: Red River, ARthur City

Data processed at Wed May 22 2019 23:50


All information presented herein is the property of the government of the United States of America and may be revised or deleted at any time without prior notice.
Dissemination of this information without the expressed written consent of the Public Affairs Office, Tulsa District U.S. Army Corps of Engineers is strictly prohibited.
These data are gathered electronically and, as presented, have not undergone any form of quality control. These data are not guaranteed to be valid or correct.
Go to home page.
Go to station list.
Go to home page.

Upstream stations:

Downstream station:
Previous Day
Next Day
Current Day
    
SHEF ID:       ARCT2     Red River at Arthur City, TX
STATION TYPE:  
Regulating: Stage =    27.00, Flow =    85822

               PRECIP     STAGE  STAGE(2)  RIV-FLOW  BAT-LOAD
                   in        ft        ft       cfs      volt
              Ccp-Rev   Ccp-Rev   Ccp-Rev   Ccp-Rev   Ccp-Rev
(US/Central)
05/22 00:00      0.00     20.77     20.70     48872     12.65
05/22 01:00      0.00     20.69     20.62     48484     12.57
05/22 02:00      0.00     20.71     20.59     48581     12.57
05/22 03:00      0.00     20.64     20.57     48243     12.57
05/22 04:00      0.00     20.60     20.56     48050     12.57
05/22 05:00      0.00     20.59     20.49     48002     12.57
05/22 06:00      0.00     20.58     20.50     47954     12.49
05/22 07:00      0.00     20.57     20.49     47906     12.49
05/22 08:00      0.00     20.50     20.44     47570     12.57
05/22 09:00      0.00     20.47     20.39     47426     12.89
05/22 10:00      0.00     20.45     20.34     47331     13.44
05/22 11:00      0.00     20.40     20.29     47092     13.60
05/22 12:00      0.00     20.33     20.28     46759     14.00
05/22 13:00      0.00     20.33     20.20     46759     13.68
05/22 14:00      0.00     20.27     20.08     46475     13.76
05/22 15:00      0.00     20.18     20.07     46050     13.68
05/22 16:00      0.00     20.12     19.99     45768     13.53
05/22 17:00      0.00     20.09     19.91     45627     13.44
05/22 18:00      0.00     19.96     19.82     45019     13.13
05/22 19:00      0.00     19.85     19.73     44508     12.97
05/22 20:00      0.00     19.78     19.70     44184     12.89
05/22 21:00      0.00     19.68     19.60     43724     12.65
05/22 22:00      0.00     19.56     19.49     43175     12.65
05/22 23:00      0.00     19.53     19.39     43038     12.65